createdAt,value
2019-05-10T00:00:50.525Z,11.73
2019-05-10T00:03:37.376Z,12.90
2019-05-10T00:06:24.564Z,13.73
2019-05-10T00:08:52.671Z,13.97
2019-05-10T00:11:41.695Z,14.63
2019-05-10T00:14:29.217Z,15.60
2019-05-10T00:17:05.972Z,17.80
2019-05-10T00:19:34.820Z,17.93
2019-05-10T00:22:03.674Z,18.73
2019-05-10T00:24:32.589Z,20.40
2019-05-10T00:27:01.509Z,18.90
2019-05-10T00:29:30.513Z,18.90
2019-05-10T00:31:59.339Z,18.07
2019-05-10T00:34:28.202Z,19.17
2019-05-10T00:37:16.448Z,19.53
2019-05-10T00:39:45.424Z,20.30
2019-05-10T00:42:14.333Z,20.47
2019-05-10T00:44:43.344Z,21.10
2019-05-10T00:47:12.249Z,22.60
2019-05-10T00:49:41.316Z,22.57
2019-05-10T00:52:10.234Z,22.37
2019-05-10T00:54:39.168Z,25.97
2019-05-10T00:57:08.195Z,24.13
2019-05-10T00:59:37.130Z,23.93
2019-05-10T01:02:08.729Z,27.43
2019-05-10T01:04:37.660Z,25.00
2019-05-10T01:07:06.646Z,25.93
2019-05-10T01:09:35.640Z,26.60
2019-05-10T01:12:04.668Z,28.53
2019-05-10T01:14:33.706Z,30.47
2019-05-10T01:17:02.612Z,31.73
2019-05-10T01:19:31.604Z,33.63
2019-05-10T01:22:00.501Z,34.47
2019-05-10T01:24:29.440Z,37.37
2019-05-10T01:26:58.343Z,40.20
2019-05-10T01:29:27.187Z,41.83
2019-05-10T01:31:56.091Z,46.17
2019-05-10T01:34:24.969Z,48.03
2019-05-10T01:36:53.893Z,47.00
2019-05-10T01:39:22.848Z,47.70
2019-05-10T01:41:51.671Z,49.87
2019-05-10T01:44:20.510Z,50.60
2019-05-10T01:46:49.462Z,47.40
2019-05-10T01:49:18.383Z,49.70
2019-05-10T01:51:47.219Z,49.17
2019-05-10T01:54:16.146Z,48.87
2019-05-10T01:56:45.042Z,52.30
2019-05-10T01:59:13.959Z,51.83
2019-05-10T02:01:42.871Z,48.60
2019-05-10T02:04:11.800Z,50.37
2019-05-10T02:06:40.771Z,51.00
2019-05-10T02:09:09.791Z,52.97
2019-05-10T02:11:38.763Z,51.70
2019-05-10T02:14:07.674Z,51.20
2019-05-10T02:16:36.562Z,51.97
2019-05-10T02:19:05.459Z,52.77
2019-05-10T02:21:34.294Z,53.63
2019-05-10T02:24:03.288Z,51.97
2019-05-10T02:26:32.199Z,51.07
2019-05-10T02:29:01.104Z,53.50
2019-05-10T02:31:30.019Z,51.17
2019-05-10T02:33:59.008Z,52.20
2019-05-10T02:36:27.958Z,49.43
2019-05-10T02:38:56.776Z,51.40
2019-05-10T02:41:44.935Z,51.30
2019-05-10T02:44:14.012Z,51.33
2019-05-10T02:46:42.940Z,48.23
2019-05-10T02:49:11.910Z,48.27
2019-05-10T02:51:40.828Z,47.77
2019-05-10T02:54:09.731Z,50.83
2019-05-10T02:56:39.860Z,48.83
2019-05-10T02:59:10.603Z,48.43
2019-05-10T03:01:44.591Z,43.57
2019-05-10T03:04:14.371Z,44.10
2019-05-10T03:06:44.786Z,44.63
2019-05-10T03:09:13.776Z,42.93
2019-05-10T03:11:49.626Z,44.80
2019-05-10T03:14:19.502Z,47.33
2019-05-10T03:16:51.917Z,47.20
2019-05-10T03:19:22.022Z,44.90
2019-05-10T03:22:02.896Z,46.63
2019-05-10T03:24:31.860Z,48.47
2019-05-10T03:27:00.715Z,45.23
2019-05-10T03:29:29.697Z,39.00
2019-05-10T03:31:58.785Z,44.30
2019-05-10T03:34:27.840Z,42.27
2019-05-10T03:36:57.115Z,40.33
2019-05-10T03:39:26.155Z,41.10
2019-05-10T03:41:55.132Z,35.23
2019-05-10T03:44:23.955Z,35.30
2019-05-10T03:46:52.794Z,31.27
2019-05-10T03:49:21.633Z,34.23
2019-05-10T03:51:50.620Z,35.50
2019-05-10T03:54:19.517Z,33.87
2019-05-10T03:56:48.378Z,36.87
2019-05-10T03:59:17.277Z,37.83
2019-05-10T04:01:46.183Z,39.20
2019-05-10T04:04:15.078Z,37.97
2019-05-10T04:06:43.940Z,37.77
2019-05-10T04:09:12.980Z,39.73
2019-05-10T04:11:41.964Z,32.37
2019-05-10T04:14:10.997Z,31.20
2019-05-10T04:16:39.997Z,27.47
2019-05-10T04:19:08.928Z,28.20
2019-05-10T04:21:37.855Z,29.27
2019-05-10T04:24:06.745Z,26.03
2019-05-10T04:26:35.655Z,27.77
2019-05-10T04:29:04.618Z,27.90
2019-05-10T04:31:33.477Z,26.47
2019-05-10T04:34:02.401Z,27.00
2019-05-10T04:36:31.318Z,27.83
2019-05-10T04:39:00.261Z,25.03
2019-05-10T04:41:29.089Z,26.77
2019-05-10T04:43:57.926Z,29.17
2019-05-10T04:46:26.826Z,27.87
2019-05-10T04:48:55.670Z,26.90
2019-05-10T04:51:24.627Z,29.00
2019-05-10T04:53:53.667Z,30.10
2019-05-10T04:56:22.576Z,31.83
2019-05-10T04:58:51.686Z,28.40
2019-05-10T05:01:20.571Z,29.57
2019-05-10T05:03:49.399Z,29.30
2019-05-10T05:06:18.304Z,28.87
2019-05-10T05:08:47.143Z,29.37
2019-05-10T05:11:16.044Z,29.23
2019-05-10T05:13:44.883Z,29.17
2019-05-10T05:16:13.711Z,29.70
2019-05-10T05:18:42.558Z,26.67
2019-05-10T05:21:11.372Z,27.57
2019-05-10T05:23:40.212Z,28.30
2019-05-10T05:26:09.104Z,25.67
2019-05-10T05:28:37.939Z,24.43
2019-05-10T05:31:06.759Z,26.77
2019-05-10T05:33:35.643Z,24.97
2019-05-10T05:36:04.712Z,25.10
2019-05-10T05:38:33.700Z,27.37
2019-05-10T05:41:02.611Z,25.43
2019-05-10T05:43:31.516Z,25.30
2019-05-10T05:46:00.347Z,26.50
2019-05-10T05:48:39.932Z,23.60
2019-05-10T05:50:59.901Z,25.63
2019-05-10T05:53:28.734Z,22.63
2019-05-10T05:55:57.584Z,25.37
2019-05-10T05:58:27.397Z,22.90
2019-05-10T06:00:56.618Z,23.13
2019-05-10T06:03:29.662Z,22.97
2019-05-10T06:05:56.083Z,23.73
2019-05-10T06:08:25.278Z,23.83
2019-05-10T06:10:57.539Z,24.33
2019-05-10T06:13:30.300Z,24.43
2019-05-10T06:15:55.460Z,24.83
2019-05-10T06:18:24.319Z,25.63
2019-05-10T06:20:53.206Z,26.67
2019-05-10T06:23:22.175Z,24.77
2019-05-10T06:25:50.999Z,25.40
2019-05-10T06:28:26.811Z,29.87
2019-05-10T06:30:50.623Z,31.73
2019-05-10T06:33:19.477Z,27.93
2019-05-10T06:35:48.385Z,28.03
2019-05-10T06:38:17.238Z,32.57
2019-05-10T06:40:47.511Z,33.10
2019-05-10T06:43:16.935Z,30.20
2019-05-10T06:45:46.854Z,33.93
2019-05-10T06:48:25.837Z,29.90
2019-05-10T06:50:48.112Z,33.53
2019-05-10T06:53:17.036Z,34.07
2019-05-10T06:55:45.884Z,32.53
2019-05-10T06:58:14.740Z,33.30
2019-05-10T07:00:47.273Z,36.70
2019-05-10T07:03:14.143Z,32.43
2019-05-10T07:05:42.986Z,31.70
2019-05-10T07:08:19.541Z,32.77
2019-05-10T07:10:42.503Z,32.90
2019-05-10T07:13:11.582Z,34.07
2019-05-10T07:15:44.286Z,33.23
2019-05-10T07:18:11.346Z,33.33
2019-05-10T07:20:43.140Z,33.00
2019-05-10T07:23:10.813Z,32.30
2019-05-10T07:25:43.724Z,30.87
2019-05-10T07:28:15.913Z,28.63
2019-05-10T07:30:41.764Z,31.37
2019-05-10T07:33:10.914Z,30.20
2019-05-10T07:35:39.948Z,28.80
2019-05-10T07:38:08.818Z,31.43
2019-05-10T07:40:37.791Z,29.33
2019-05-10T07:43:06.755Z,31.47
2019-05-10T07:45:36.001Z,30.33
2019-05-10T07:48:08.378Z,30.20
2019-05-10T07:50:35.476Z,28.73
2019-05-10T07:53:04.368Z,29.70
2019-05-10T07:55:33.287Z,25.87
2019-05-10T07:58:05.234Z,26.40
2019-05-10T08:00:38.228Z,24.03
2019-05-10T08:03:15.235Z,24.03
2019-05-10T08:05:33.850Z,23.33
2019-05-10T08:08:02.671Z,24.23
2019-05-10T08:10:31.509Z,21.13
2019-05-10T08:13:03.565Z,18.47
2019-05-10T08:15:34.733Z,16.47
2019-05-10T08:18:01.521Z,16.43
2019-05-10T08:20:43.724Z,14.60
2019-05-10T08:23:02.820Z,13.47
2019-05-10T08:25:36.396Z,13.90
2019-05-10T08:28:05.316Z,14.60
2019-05-10T08:30:51.332Z,12.67
2019-05-10T08:33:14.481Z,12.53
2019-05-10T08:35:45.855Z,10.57
2019-05-10T08:38:13.145Z,11.20
2019-05-10T08:40:42.898Z,12.37
2019-05-10T08:43:15.603Z,10.27
2019-05-10T08:45:44.864Z,10.20
2019-05-10T08:48:13.105Z,9.33
2019-05-10T08:50:50.746Z,9.57
2019-05-10T08:53:16.290Z,9.47
2019-05-10T08:55:43.475Z,10.67
2019-05-10T08:58:12.594Z,12.20
2019-05-10T09:00:53.769Z,11.03
2019-05-10T09:03:18.367Z,9.63
2019-05-10T09:05:43.928Z,8.93
2019-05-10T09:08:19.624Z,8.80
2019-05-10T09:10:43.605Z,9.90
2019-05-10T09:13:13.000Z,9.37
2019-05-10T09:15:51.171Z,9.23
2019-05-10T09:18:12.947Z,6.73
2019-05-10T09:20:42.375Z,6.83
2019-05-10T09:23:15.360Z,5.93
2019-05-10T09:25:42.753Z,6.80
2019-05-10T09:28:16.791Z,5.90
2019-05-10T09:30:56.907Z,7.20
2019-05-10T09:33:14.320Z,6.23
2019-05-10T09:35:51.531Z,7.40
2019-05-10T09:38:14.224Z,8.27
2019-05-10T09:40:51.045Z,6.27
2019-05-10T09:43:14.873Z,5.57
2019-05-10T09:45:44.166Z,5.77
2019-05-10T09:48:13.139Z,5.90
2019-05-10T09:50:46.784Z,6.00
2019-05-10T09:53:15.341Z,6.40
2019-05-10T09:55:45.633Z,6.70
2019-05-10T09:58:13.819Z,15.23
2019-05-10T10:00:42.722Z,8.20
2019-05-10T10:03:12.956Z,7.30
2019-05-10T10:05:42.009Z,8.57
2019-05-10T10:08:11.108Z,9.50
2019-05-10T10:10:40.418Z,8.87
2019-05-10T10:13:13.508Z,7.97
2019-05-10T10:15:42.409Z,6.27
2019-05-10T10:18:12.643Z,8.37
2019-05-10T10:20:44.971Z,8.03
2019-05-10T10:23:34.809Z,9.13
2019-05-10T10:26:02.256Z,8.53
2019-05-10T10:28:31.358Z,7.43
2019-05-10T10:31:05.326Z,8.83
2019-05-10T10:33:30.785Z,7.03
2019-05-10T10:36:04.614Z,7.00
2019-05-10T10:38:31.311Z,6.93
2019-05-10T10:41:00.447Z,6.50
2019-05-10T10:43:29.289Z,7.00
2019-05-10T10:45:58.125Z,8.53
2019-05-10T10:48:28.452Z,8.90
2019-05-10T10:50:58.734Z,9.13
2019-05-10T10:53:29.187Z,6.33
2019-05-10T10:56:03.525Z,6.53
2019-05-10T10:58:29.006Z,6.77
2019-05-10T11:00:58.141Z,6.73
2019-05-10T11:03:30.230Z,6.30
2019-05-10T11:05:57.890Z,5.30
2019-05-10T11:08:26.936Z,5.30
2019-05-10T11:10:55.921Z,4.70
2019-05-10T11:13:41.377Z,7.33
2019-05-10T11:15:59.043Z,5.17
2019-05-10T11:18:26.843Z,6.23
2019-05-10T11:20:55.827Z,6.27
2019-05-10T11:23:34.228Z,5.00
2019-05-10T11:25:56.667Z,4.27
2019-05-10T11:28:30.078Z,6.93
2019-05-10T11:30:56.387Z,4.90
2019-05-10T11:33:29.896Z,5.23
2019-05-10T11:35:57.601Z,4.37
2019-05-10T11:38:26.855Z,5.43
2019-05-10T11:40:55.833Z,4.10
2019-05-10T11:43:27.057Z,3.90
2019-05-10T11:45:55.351Z,4.00
2019-05-10T11:48:28.975Z,5.50
2019-05-10T11:50:54.983Z,4.37
2019-05-10T11:53:24.149Z,4.20
2019-05-10T11:55:53.235Z,3.80
2019-05-10T11:58:23.698Z,6.60
2019-05-10T12:03:23.711Z,5.40
2019-05-10T12:06:12.099Z,6.23
2019-05-10T12:08:42.016Z,7.27
2019-05-10T12:11:28.220Z,4.63
2019-05-10T12:13:41.925Z,4.13
2019-05-10T12:16:16.111Z,5.43
2019-05-10T12:18:46.705Z,4.17
2019-05-10T12:21:12.581Z,8.37
2019-05-10T12:23:50.284Z,4.23
2019-05-10T12:26:06.013Z,6.37
2019-05-10T12:28:43.043Z,4.33
2019-05-10T12:31:15.156Z,4.13
2019-05-10T12:33:45.290Z,3.83
2019-05-10T12:36:23.454Z,4.27
2019-05-10T12:38:44.031Z,6.63
2019-05-10T12:41:13.033Z,4.73
2019-05-10T12:43:43.634Z,3.67
2019-05-10T12:46:13.915Z,4.13
2019-05-10T12:48:42.873Z,5.37
2019-05-10T12:51:15.968Z,3.73
2019-05-10T12:53:47.617Z,3.97
2019-05-10T12:56:13.111Z,4.10
2019-05-10T12:58:42.030Z,4.23
2019-05-10T13:01:11.003Z,5.27
2019-05-10T13:03:39.885Z,4.90
2019-05-10T13:06:08.862Z,6.83
2019-05-10T13:08:56.997Z,6.47
2019-05-10T13:11:27.078Z,5.93
2019-05-10T13:14:00.915Z,7.30
2019-05-10T13:16:26.651Z,4.00
2019-05-10T13:18:55.540Z,3.57
2019-05-10T13:21:24.442Z,3.70
2019-05-10T13:23:55.205Z,5.00
2019-05-10T13:26:24.363Z,5.20
2019-05-10T13:28:53.259Z,4.70
2019-05-10T13:31:22.174Z,4.50
2019-05-10T13:33:51.094Z,6.07
2019-05-10T13:36:19.927Z,3.63
2019-05-10T13:38:49.485Z,2.57
2019-05-10T13:41:24.449Z,2.67
2019-05-10T13:43:49.283Z,2.50
2019-05-10T13:46:18.176Z,3.07
2019-05-10T13:48:47.073Z,2.97
2019-05-10T13:51:16.082Z,3.17
2019-05-10T13:53:45.034Z,5.13
2019-05-10T13:56:13.964Z,3.10
2019-05-10T13:58:42.772Z,3.60
2019-05-10T14:01:13.111Z,4.47
2019-05-10T14:03:45.342Z,4.07
2019-05-10T14:06:13.078Z,2.73
2019-05-10T14:08:48.022Z,3.33
2019-05-10T14:11:13.311Z,4.60
2019-05-10T14:13:43.328Z,4.23
2019-05-10T14:16:18.330Z,3.93
2019-05-10T14:18:42.976Z,4.60
2019-05-10T14:21:11.891Z,4.27
2019-05-10T14:23:40.702Z,5.80
2019-05-10T14:26:16.021Z,4.10
2019-05-10T14:28:40.171Z,6.27
2019-05-10T14:31:09.171Z,5.33
2019-05-10T14:33:38.009Z,4.60
2019-05-10T14:36:07.100Z,5.70
2019-05-10T14:38:36.058Z,4.43
2019-05-10T14:41:10.869Z,4.57
2019-05-10T14:43:38.287Z,4.23
2019-05-10T14:46:13.611Z,6.23
2019-05-10T14:48:38.055Z,8.63
2019-05-10T14:51:11.053Z,4.53
2019-05-10T14:53:37.748Z,6.10
2019-05-10T14:56:07.962Z,5.83
2019-05-10T14:58:37.585Z,5.57
2019-05-10T15:01:06.519Z,6.63
2019-05-10T15:03:44.889Z,4.50
2019-05-10T15:06:06.143Z,4.20
2019-05-10T15:08:35.075Z,4.67
2019-05-10T15:11:04.040Z,5.63
2019-05-10T15:13:35.329Z,5.47
2019-05-10T15:16:07.049Z,6.60
2019-05-10T15:18:34.064Z,4.97
2019-05-10T15:21:02.973Z,5.07
2019-05-10T15:23:31.804Z,8.17
2019-05-10T15:26:10.500Z,5.77
2019-05-10T15:28:34.615Z,5.17
2019-05-10T15:31:02.233Z,5.43
2019-05-10T15:33:31.219Z,5.77
2019-05-10T15:36:00.069Z,6.07
2019-05-10T15:38:29.045Z,5.60
2019-05-10T15:40:57.975Z,5.50
2019-05-10T15:43:26.807Z,5.60
2019-05-10T15:45:55.702Z,5.80
2019-05-10T15:48:24.541Z,7.57
2019-05-10T15:50:53.354Z,7.60
2019-05-10T15:53:25.628Z,5.40
2019-05-10T15:55:52.761Z,5.77
2019-05-10T15:58:21.717Z,5.87
2019-05-10T16:00:50.604Z,5.40
2019-05-10T16:03:19.477Z,5.47
2019-05-10T16:05:59.862Z,4.53
2019-05-10T16:08:24.092Z,4.37
2019-05-10T16:10:49.429Z,7.10
2019-05-10T16:13:23.202Z,5.63
2019-05-10T16:15:51.412Z,4.90
2019-05-10T16:18:19.635Z,6.50
2019-05-10T16:20:48.593Z,6.53
2019-05-10T16:23:17.439Z,4.43
2019-05-10T16:25:48.494Z,5.60
2019-05-10T16:28:20.838Z,3.73
2019-05-10T16:30:47.695Z,5.93
2019-05-10T16:33:18.181Z,5.37
2019-05-10T16:35:49.817Z,3.73
2019-05-10T16:38:18.122Z,5.77
2019-05-10T16:40:57.247Z,5.27
2019-05-10T16:43:23.897Z,5.53
2019-05-10T16:45:48.224Z,4.20
2019-05-10T16:48:17.142Z,5.70
2019-05-10T16:50:46.067Z,6.33
2019-05-10T16:53:15.039Z,4.33
2019-05-10T16:55:43.961Z,4.97
2019-05-10T16:58:15.296Z,4.57
2019-05-10T17:00:46.359Z,6.10
2019-05-10T17:03:18.349Z,4.37
2019-05-10T17:05:53.119Z,5.37
2019-05-10T17:08:15.241Z,6.70
2019-05-10T17:10:44.134Z,4.13
2019-05-10T17:13:13.038Z,4.43
2019-05-10T17:15:41.891Z,5.70
2019-05-10T17:18:17.702Z,6.83
2019-05-10T17:20:45.492Z,5.60
2019-05-10T17:23:12.168Z,4.93
2019-05-10T17:25:42.277Z,4.63
2019-05-10T17:28:11.335Z,4.87
2019-05-10T17:30:40.217Z,6.03
2019-05-10T17:33:10.812Z,4.83
2019-05-10T17:35:42.250Z,4.83
2019-05-10T17:38:14.278Z,4.97
2019-05-10T17:40:42.272Z,4.70
2019-05-10T17:43:14.522Z,4.47
2019-05-10T17:45:42.472Z,5.90
2019-05-10T17:48:11.535Z,5.33
2019-05-10T17:50:40.761Z,4.87
2019-05-10T17:53:09.846Z,3.77
2019-05-10T17:55:38.696Z,4.97
2019-05-10T17:58:07.512Z,4.37
2019-05-10T18:00:36.323Z,3.77
2019-05-10T18:03:05.244Z,4.23
2019-05-10T18:05:34.364Z,4.63
2019-05-10T18:08:03.393Z,5.60
2019-05-10T18:10:32.362Z,4.40
2019-05-10T18:13:03.533Z,3.90
2019-05-10T18:15:33.038Z,4.90
2019-05-10T18:18:04.247Z,5.70
2019-05-10T18:20:40.809Z,7.60
2019-05-10T18:23:04.031Z,4.70
2019-05-10T18:25:32.851Z,4.50
2019-05-10T18:28:01.823Z,5.63
2019-05-10T18:30:30.652Z,5.57
2019-05-10T18:32:59.799Z,5.90
2019-05-10T18:35:28.852Z,4.57
2019-05-10T18:37:59.557Z,8.63
2019-05-10T18:40:31.702Z,6.20
2019-05-10T18:43:04.090Z,4.90
2019-05-10T18:45:30.105Z,4.73
2019-05-10T18:47:59.055Z,7.33
2019-05-10T18:50:27.955Z,6.47
2019-05-10T18:52:56.872Z,5.12
2019-05-10T18:55:25.678Z,6.47
2019-05-10T18:57:54.703Z,5.93
2019-05-10T19:00:25.325Z,6.20
2019-05-10T19:02:57.087Z,5.00
2019-05-10T19:05:31.216Z,5.10
2019-05-10T19:08:03.196Z,6.10
2019-05-10T19:10:26.170Z,6.77
2019-05-10T19:13:01.378Z,6.30
2019-05-10T19:15:25.761Z,6.03
2019-05-10T19:17:54.763Z,7.43
2019-05-10T19:20:24.412Z,6.57
2019-05-10T19:22:53.242Z,6.97
2019-05-10T19:25:22.133Z,5.53
2019-05-10T19:27:51.297Z,5.07
2019-05-10T19:30:22.085Z,6.33
2019-05-10T19:32:55.864Z,8.50
2019-05-10T19:35:21.752Z,5.77
2019-05-10T19:37:50.595Z,5.73
2019-05-10T19:40:19.700Z,6.13
2019-05-10T19:42:49.565Z,6.50
2019-05-10T19:45:20.791Z,5.50
2019-05-10T19:47:54.958Z,6.97
2019-05-10T19:50:24.277Z,5.83
2019-05-10T19:52:58.357Z,5.83
2019-05-10T19:55:27.186Z,6.60
2019-05-10T19:57:56.619Z,6.13
2019-05-10T20:00:25.794Z,7.33
2019-05-10T20:02:54.616Z,6.20
2019-05-10T20:05:23.619Z,6.17
2019-05-10T20:07:52.590Z,7.00
2019-05-10T20:10:21.520Z,6.50
2019-05-10T20:12:50.858Z,6.50
2019-05-10T20:15:19.961Z,6.97
2019-05-10T20:17:49.011Z,6.73
2019-05-10T20:20:18.202Z,8.43
2019-05-10T20:22:47.857Z,10.30
2019-05-10T20:25:35.966Z,9.63
2019-05-10T20:28:06.534Z,8.70
2019-05-10T20:30:35.595Z,11.37
2019-05-10T20:33:04.576Z,10.40
2019-05-10T20:35:33.559Z,10.10
2019-05-10T20:38:03.547Z,11.07
2019-05-10T20:40:32.580Z,12.07
2019-05-10T20:43:02.319Z,10.17
2019-05-10T20:45:32.367Z,9.93
2019-05-10T20:48:02.275Z,8.50
2019-05-10T20:50:32.700Z,8.40
2019-05-10T20:53:02.579Z,12.38
2019-05-10T20:55:31.551Z,10.73
2019-05-10T20:58:00.417Z,9.37
2019-05-10T21:00:31.053Z,9.87
2019-05-10T21:03:00.048Z,9.47
2019-05-10T21:05:29.013Z,10.47
2019-05-10T21:07:57.961Z,10.17
2019-05-10T21:10:26.801Z,9.10
2019-05-10T21:12:55.708Z,10.13
2019-05-10T21:15:24.609Z,10.70
2019-05-10T21:17:53.518Z,9.23
2019-05-10T21:20:22.421Z,11.03
2019-05-10T21:22:51.258Z,11.13
2019-05-10T21:25:20.173Z,12.07
2019-05-10T21:27:49.105Z,12.27
2019-05-10T21:30:18.200Z,14.00
2019-05-10T21:32:47.075Z,11.40
2019-05-10T21:35:16.071Z,12.07
2019-05-10T21:37:44.919Z,11.80
2019-05-10T21:40:13.819Z,13.23
2019-05-10T21:42:42.720Z,15.27
2019-05-10T21:45:11.770Z,13.23
2019-05-10T21:47:51.191Z,11.47
2019-05-10T21:50:11.554Z,11.90
2019-05-10T21:52:40.539Z,11.10
2019-05-10T21:55:09.516Z,11.67
2019-05-10T21:57:38.423Z,11.57
2019-05-10T22:00:07.445Z,10.60
2019-05-10T22:02:36.354Z,8.90
2019-05-10T22:05:05.891Z,9.67
2019-05-10T22:07:34.819Z,7.97
2019-05-10T22:10:03.916Z,7.30
2019-05-10T22:12:32.747Z,8.30
2019-05-10T22:15:01.568Z,9.87
2019-05-10T22:17:30.447Z,8.43
2019-05-10T22:19:59.267Z,8.40
2019-05-10T22:22:28.116Z,10.27
2019-05-10T22:24:57.036Z,7.63
2019-05-10T22:27:25.859Z,8.43
2019-05-10T22:29:54.688Z,9.07
2019-05-10T22:32:23.529Z,12.77
2019-05-10T22:34:53.320Z,6.50
2019-05-10T22:37:22.211Z,7.23
2019-05-10T22:39:51.182Z,9.13
2019-05-10T22:42:19.997Z,10.37
2019-05-10T22:44:48.905Z,11.33
2019-05-10T22:47:17.787Z,11.27
2019-05-10T22:49:46.623Z,8.33
2019-05-10T22:52:15.496Z,5.87
2019-05-10T22:54:44.430Z,9.27
2019-05-10T22:57:13.350Z,8.53
2019-05-10T22:59:42.297Z,9.23
2019-05-10T23:02:11.271Z,9.80
2019-05-10T23:04:40.199Z,8.63
2019-05-10T23:07:08.994Z,9.00
2019-05-10T23:09:37.816Z,6.70
2019-05-10T23:12:06.712Z,10.13
2019-05-10T23:14:35.616Z,11.73
2019-05-10T23:17:04.589Z,7.50
2019-05-10T23:19:33.565Z,8.47
2019-05-10T23:22:02.390Z,8.53
2019-05-10T23:24:40.136Z,7.67
2019-05-10T23:27:09.135Z,11.13
2019-05-10T23:29:38.106Z,7.03
2019-05-10T23:32:06.913Z,10.27
2019-05-10T23:34:35.832Z,9.97
2019-05-10T23:37:04.780Z,9.03
2019-05-10T23:39:40.646Z,10.97
2019-05-10T23:42:04.298Z,7.97
2019-05-10T23:44:33.141Z,8.73
2019-05-10T23:47:02.103Z,9.97
2019-05-10T23:49:30.999Z,7.67
2019-05-10T23:51:59.856Z,9.13
2019-05-10T23:54:28.692Z,9.77
2019-05-10T23:56:57.563Z,8.20
2019-05-10T23:59:26.400Z,10.67
